sensor_id;sensor_type;location;lat;lon;timestamp;pressure;altitude;pressure_sealevel;temperature;humidity
4617;BME280;2321;42.704;23.384;2024-02-14T00:02:21;95167.75;;;6.44;nan
4617;BME280;2321;42.704;23.384;2024-02-14T00:04:48;95164.47;;;6.42;nan
4617;BME280;2321;42.704;23.384;2024-02-14T00:07:16;95161.00;;;6.41;nan
4617;BME280;2321;42.704;23.384;2024-02-14T00:09:43;95156.53;;;6.42;nan
4617;BME280;2321;42.704;23.384;2024-02-14T00:12:10;95157.19;;;6.44;nan
4617;BME280;2321;42.704;23.384;2024-02-14T00:14:38;95166.28;;;6.41;nan
4617;BME280;2321;42.704;23.384;2024-02-14T00:17:05;95160.84;;;6.43;nan
4617;BME280;2321;42.704;23.384;2024-02-14T00:19:32;95167.75;;;6.44;nan
4617;BME280;2321;42.704;23.384;2024-02-14T00:21:59;95171.44;;;6.43;nan
4617;BME280;2321;42.704;23.384;2024-02-14T00:24:28;95164.66;;;6.40;nan
4617;BME280;2321;42.704;23.384;2024-02-14T00:26:55;95170.94;;;6.39;nan
4617;BME280;2321;42.704;23.384;2024-02-14T00:29:22;95175.88;;;6.42;nan
4617;BME280;2321;42.704;23.384;2024-02-14T00:31:49;95165.13;;;6.44;nan
4617;BME280;2321;42.704;23.384;2024-02-14T00:34:16;95169.06;;;6.48;nan
4617;BME280;2321;42.704;23.384;2024-02-14T00:36:43;95167.41;;;6.47;nan
4617;BME280;2321;42.704;23.384;2024-02-14T00:39:12;95172.56;;;6.49;nan
4617;BME280;2321;42.704;23.384;2024-02-14T00:41:40;95176.72;;;6.43;nan
4617;BME280;2321;42.704;23.384;2024-02-14T00:44:07;95178.81;;;6.48;nan
4617;BME280;2321;42.704;23.384;2024-02-14T00:46:34;95172.03;;;6.53;nan
4617;BME280;2321;42.704;23.384;2024-02-14T00:49:01;95178.13;;;6.54;nan
4617;BME280;2321;42.704;23.384;2024-02-14T00:51:28;95172.69;;;6.56;nan
4617;BME280;2321;42.704;23.384;2024-02-14T00:53:58;95178.00;;;6.56;nan
4617;BME280;2321;42.704;23.384;2024-02-14T00:56:26;95178.97;;;6.54;nan
4617;BME280;2321;42.704;23.384;2024-02-14T00:58:54;95181.13;;;6.59;nan
4617;BME280;2321;42.704;23.384;2024-02-14T01:01:22;95177.09;;;6.63;nan
4617;BME280;2321;42.704;23.384;2024-02-14T01:03:49;95169.34;;;6.62;nan
4617;BME280;2321;42.704;23.384;2024-02-14T01:06:16;95181.56;;;6.63;nan
4617;BME280;2321;42.704;23.384;2024-02-14T01:08:43;95183.22;;;6.64;nan
4617;BME280;2321;42.704;23.384;2024-02-14T01:11:11;95187.88;;;6.62;nan
4617;BME280;2321;42.704;23.384;2024-02-14T01:13:38;95175.81;;;6.59;nan
4617;BME280;2321;42.704;23.384;2024-02-14T01:16:07;95177.31;;;6.62;nan
4617;BME280;2321;42.704;23.384;2024-02-14T01:18:35;95180.75;;;6.62;nan
4617;BME280;2321;42.704;23.384;2024-02-14T01:21:02;95176.28;;;6.63;nan
4617;BME280;2321;42.704;23.384;2024-02-14T01:23:29;95163.94;;;6.55;nan
4617;BME280;2321;42.704;23.384;2024-02-14T01:25:56;95183.03;;;6.65;nan
4617;BME280;2321;42.704;23.384;2024-02-14T01:28:23;95171.81;;;6.63;nan
4617;BME280;2321;42.704;23.384;2024-02-14T01:30:51;95170.16;;;6.62;nan
4617;BME280;2321;42.704;23.384;2024-02-14T01:33:19;95175.44;;;6.62;nan
4617;BME280;2321;42.704;23.384;2024-02-14T01:35:46;95168.34;;;6.63;nan
4617;BME280;2321;42.704;23.384;2024-02-14T01:38:13;95163.41;;;6.60;nan
4617;BME280;2321;42.704;23.384;2024-02-14T01:40:42;95162.75;;;6.58;nan
4617;BME280;2321;42.704;23.384;2024-02-14T01:43:10;95170.56;;;6.51;nan
4617;BME280;2321;42.704;23.384;2024-02-14T01:45:40;95176.38;;;6.46;nan
4617;BME280;2321;42.704;23.384;2024-02-14T01:48:07;95182.50;;;6.47;nan
4617;BME280;2321;42.704;23.384;2024-02-14T01:50:36;95176.19;;;6.48;nan
4617;BME280;2321;42.704;23.384;2024-02-14T01:53:05;95177.50;;;6.52;nan
4617;BME280;2321;42.704;23.384;2024-02-14T01:55:32;95179.31;;;6.51;nan
4617;BME280;2321;42.704;23.384;2024-02-14T01:58:00;95186.25;;;6.52;nan
4617;BME280;2321;42.704;23.384;2024-02-14T02:00:29;95171.72;;;6.48;nan
4617;BME280;2321;42.704;23.384;2024-02-14T02:02:58;95172.38;;;6.50;nan
4617;BME280;2321;42.704;23.384;2024-02-14T02:05:25;95175.00;;;6.50;nan
4617;BME280;2321;42.704;23.384;2024-02-14T02:07:54;95179.66;;;6.48;nan
4617;BME280;2321;42.704;23.384;2024-02-14T02:10:21;95149.97;;;6.29;nan
4617;BME280;2321;42.704;23.384;2024-02-14T02:12:51;95191.41;;;6.46;nan
4617;BME280;2321;42.704;23.384;2024-02-14T02:15:18;95188.13;;;6.43;nan
4617;BME280;2321;42.704;23.384;2024-02-14T02:17:45;95180.00;;;6.45;nan
4617;BME280;2321;42.704;23.384;2024-02-14T02:20:18;95194.88;;;6.46;nan
4617;BME280;2321;42.704;23.384;2024-02-14T02:22:47;95187.59;;;6.48;nan
4617;BME280;2321;42.704;23.384;2024-02-14T02:25:15;95194.06;;;6.46;nan
4617;BME280;2321;42.704;23.384;2024-02-14T02:27:42;95193.22;;;6.45;nan
4617;BME280;2321;42.704;23.384;2024-02-14T02:30:09;95197.69;;;6.45;nan
4617;BME280;2321;42.704;23.384;2024-02-14T02:32:39;95195.88;;;6.45;nan
4617;BME280;2321;42.704;23.384;2024-02-14T02:35:07;95193.41;;;6.43;nan
4617;BME280;2321;42.704;23.384;2024-02-14T02:37:35;95201.00;;;6.47;nan
4617;BME280;2321;42.704;23.384;2024-02-14T02:40:04;95204.44;;;6.47;nan
4617;BME280;2321;42.704;23.384;2024-02-14T02:42:32;95199.16;;;6.47;nan
4617;BME280;2321;42.704;23.384;2024-02-14T02:45:00;95217.84;;;6.46;nan
4617;BME280;2321;42.704;23.384;2024-02-14T02:47:27;95211.09;;;6.43;nan
4617;BME280;2321;42.704;23.384;2024-02-14T02:49:55;95211.25;;;6.41;nan
4617;BME280;2321;42.704;23.384;2024-02-14T02:52:27;95217.03;;;6.45;nan
4617;BME280;2321;42.704;23.384;2024-02-14T02:54:54;95221.00;;;6.41;nan
4617;BME280;2321;42.704;23.384;2024-02-14T02:57:23;95223.81;;;6.39;nan
4617;BME280;2321;42.704;23.384;2024-02-14T02:59:52;95219.53;;;6.38;nan
4617;BME280;2321;42.704;23.384;2024-02-14T03:02:20;95221.38;;;6.38;nan
4617;BME280;2321;42.704;23.384;2024-02-14T03:04:48;95228.28;;;6.39;nan
4617;BME280;2321;42.704;23.384;2024-02-14T03:07:16;95217.91;;;6.29;nan
4617;BME280;2321;42.704;23.384;2024-02-14T03:09:44;95228.63;;;6.36;nan
4617;BME280;2321;42.704;23.384;2024-02-14T03:12:11;95230.09;;;6.38;nan
4617;BME280;2321;42.704;23.384;2024-02-14T03:14:43;95240.53;;;6.40;nan
4617;BME280;2321;42.704;23.384;2024-02-14T03:17:10;95242.34;;;6.39;nan
4617;BME280;2321;42.704;23.384;2024-02-14T03:19:39;95246.50;;;6.34;nan
4617;BME280;2321;42.704;23.384;2024-02-14T03:22:06;95241.69;;;6.29;nan
4617;BME280;2321;42.704;23.384;2024-02-14T03:24:34;95253.94;;;6.30;nan
4617;BME280;2321;42.704;23.384;2024-02-14T03:27:03;95267.66;;;6.34;nan
4617;BME280;2321;42.704;23.384;2024-02-14T03:29:31;95258.38;;;6.29;nan
4617;BME280;2321;42.704;23.384;2024-02-14T03:32:02;95266.81;;;6.33;nan
4617;BME280;2321;42.704;23.384;2024-02-14T03:34:30;95263.53;;;6.31;nan
4617;BME280;2321;42.704;23.384;2024-02-14T03:36:59;95264.00;;;6.26;nan
4617;BME280;2321;42.704;23.384;2024-02-14T03:39:28;95272.97;;;6.25;nan
4617;BME280;2321;42.704;23.384;2024-02-14T03:41:56;95273.09;;;6.24;nan
4617;BME280;2321;42.704;23.384;2024-02-14T03:44:24;95268.31;;;6.27;nan
4617;BME280;2321;42.704;23.384;2024-02-14T03:46:51;95275.25;;;6.28;nan
4617;BME280;2321;42.704;23.384;2024-02-14T03:49:19;95277.72;;;6.30;nan
4617;BME280;2321;42.704;23.384;2024-02-14T03:51:47;95282.53;;;6.26;nan
4617;BME280;2321;42.704;23.384;2024-02-14T03:54:15;95286.00;;;6.27;nan
4617;BME280;2321;42.704;23.384;2024-02-14T03:56:42;95273.94;;;6.24;nan
4617;BME280;2321;42.704;23.384;2024-02-14T03:59:09;95271.94;;;6.26;nan
4617;BME280;2321;42.704;23.384;2024-02-14T04:01:36;95274.91;;;6.23;nan
4617;BME280;2321;42.704;23.384;2024-02-14T04:04:03;95281.22;;;6.22;nan
4617;BME280;2321;42.704;23.384;2024-02-14T04:06:32;95284.84;;;6.21;nan
4617;BME280;2321;42.704;23.384;2024-02-14T04:08:59;95290.97;;;6.21;nan
4617;BME280;2321;42.704;23.384;2024-02-14T04:11:27;95289.81;;;6.24;nan
4617;BME280;2321;42.704;23.384;2024-02-14T04:13:54;95298.91;;;6.21;nan
4617;BME280;2321;42.704;23.384;2024-02-14T04:16:21;95295.44;;;6.21;nan
4617;BME280;2321;42.704;23.384;2024-02-14T04:18:48;95293.13;;;6.18;nan
4617;BME280;2321;42.704;23.384;2024-02-14T04:21:15;95292.81;;;6.13;nan
4617;BME280;2321;42.704;23.384;2024-02-14T04:23:43;95276.25;;;6.02;nan
4617;BME280;2321;42.704;23.384;2024-02-14T04:26:19;95300.22;;;6.17;nan
4617;BME280;2321;42.704;23.384;2024-02-14T04:28:46;95300.06;;;6.19;nan
4617;BME280;2321;42.704;23.384;2024-02-14T04:31:13;95298.06;;;6.21;nan
4617;BME280;2321;42.704;23.384;2024-02-14T04:33:41;95308.66;;;6.21;nan
4617;BME280;2321;42.704;23.384;2024-02-14T04:36:08;95309.97;;;6.17;nan
4617;BME280;2321;42.704;23.384;2024-02-14T04:38:37;95309.00;;;6.09;nan
4617;BME280;2321;42.704;23.384;2024-02-14T04:41:07;95314.56;;;6.06;nan
4617;BME280;2321;42.704;23.384;2024-02-14T04:43:35;95320.69;;;6.07;nan
4617;BME280;2321;42.704;23.384;2024-02-14T04:46:03;95331.41;;;6.05;nan
4617;BME280;2321;42.704;23.384;2024-02-14T04:48:32;95327.13;;;6.04;nan
4617;BME280;2321;42.704;23.384;2024-02-14T04:51:00;95326.78;;;6.07;nan
4617;BME280;2321;42.704;23.384;2024-02-14T04:53:27;95328.63;;;6.07;nan
4617;BME280;2321;42.704;23.384;2024-02-14T04:55:54;95327.13;;;6.04;nan
4617;BME280;2321;42.704;23.384;2024-02-14T04:58:23;95329.75;;;6.04;nan
4617;BME280;2321;42.704;23.384;2024-02-14T05:00:50;95342.97;;;6.04;nan
4617;BME280;2321;42.704;23.384;2024-02-14T05:03:17;95337.69;;;6.04;nan
4617;BME280;2321;42.704;23.384;2024-02-14T05:05:44;95345.78;;;6.03;nan
4617;BME280;2321;42.704;23.384;2024-02-14T05:08:11;95343.81;;;6.05;nan
4617;BME280;2321;42.704;23.384;2024-02-14T05:10:38;95352.88;;;6.02;nan
4617;BME280;2321;42.704;23.384;2024-02-14T05:13:05;95357.84;;;5.97;nan
4617;BME280;2321;42.704;23.384;2024-02-14T05:15:33;95363.78;;;5.99;nan
4617;BME280;2321;42.704;23.384;2024-02-14T05:18:02;95367.59;;;6.05;nan
4617;BME280;2321;42.704;23.384;2024-02-14T05:20:31;95360.69;;;6.12;nan
4617;BME280;2321;42.704;23.384;2024-02-14T05:22:58;95366.13;;;6.10;nan
4617;BME280;2321;42.704;23.384;2024-02-14T05:25:25;95373.25;;;6.10;nan
4617;BME280;2321;42.704;23.384;2024-02-14T05:27:55;95377.53;;;6.11;nan
4617;BME280;2321;42.704;23.384;2024-02-14T05:30:24;95380.50;;;6.08;nan
4617;BME280;2321;42.704;23.384;2024-02-14T05:32:53;95387.91;;;6.04;nan
4617;BME280;2321;42.704;23.384;2024-02-14T05:35:22;95392.53;;;6.02;nan
4617;BME280;2321;42.704;23.384;2024-02-14T05:37:49;95387.75;;;6.06;nan
4617;BME280;2321;42.704;23.384;2024-02-14T05:40:17;95397.81;;;6.02;nan
4617;BME280;2321;42.704;23.384;2024-02-14T05:42:44;95405.09;;;6.00;nan
4617;BME280;2321;42.704;23.384;2024-02-14T05:45:11;95407.56;;;5.93;nan
4617;BME280;2321;42.704;23.384;2024-02-14T05:47:38;95402.78;;;5.97;nan
4617;BME280;2321;42.704;23.384;2024-02-14T05:50:07;95405.25;;;5.98;nan
4617;BME280;2321;42.704;23.384;2024-02-14T05:52:37;95405.94;;;6.01;nan
4617;BME280;2321;42.704;23.384;2024-02-14T05:55:04;95417.66;;;5.98;nan
4617;BME280;2321;42.704;23.384;2024-02-14T05:57:32;95419.78;;;5.94;nan
4617;BME280;2321;42.704;23.384;2024-02-14T05:59:59;95430.50;;;5.93;nan
4617;BME280;2321;42.704;23.384;2024-02-14T06:02:26;95430.00;;;5.89;nan
4617;BME280;2321;42.704;23.384;2024-02-14T06:04:53;95435.28;;;5.89;nan
4617;BME280;2321;42.704;23.384;2024-02-14T06:07:21;95430.31;;;5.86;nan
4617;BME280;2321;42.704;23.384;2024-02-14T06:09:48;95445.38;;;5.85;nan
4617;BME280;2321;42.704;23.384;2024-02-14T06:12:15;95445.22;;;5.87;nan
4617;BME280;2321;42.704;23.384;2024-02-14T06:14:42;95450.81;;;5.84;nan
4617;BME280;2321;42.704;23.384;2024-02-14T06:17:10;95453.31;;;5.85;nan
4617;BME280;2321;42.704;23.384;2024-02-14T06:19:37;95451.31;;;5.79;nan
4617;BME280;2321;42.704;23.384;2024-02-14T06:22:04;95450.63;;;5.77;nan
4617;BME280;2321;42.704;23.384;2024-02-14T06:24:33;95454.59;;;5.73;nan
4617;BME280;2321;42.704;23.384;2024-02-14T06:27:00;95450.94;;;5.74;nan
4617;BME280;2321;42.704;23.384;2024-02-14T06:29:27;95459.69;;;5.74;nan
4617;BME280;2321;42.704;23.384;2024-02-14T06:31:54;95462.53;;;5.73;nan
4617;BME280;2321;42.704;23.384;2024-02-14T06:34:21;95467.16;;;5.79;nan
4617;BME280;2321;42.704;23.384;2024-02-14T06:36:48;95466.84;;;5.82;nan
4617;BME280;2321;42.704;23.384;2024-02-14T06:39:15;95471.28;;;5.82;nan
4617;BME280;2321;42.704;23.384;2024-02-14T06:41:43;95470.47;;;5.81;nan
4617;BME280;2321;42.704;23.384;2024-02-14T06:44:12;95470.25;;;5.74;nan
4617;BME280;2321;42.704;23.384;2024-02-14T06:46:39;95466.66;;;5.75;nan
4617;BME280;2321;42.704;23.384;2024-02-14T06:49:07;95474.09;;;5.80;nan
4617;BME280;2321;42.704;23.384;2024-02-14T06:51:35;95469.44;;;5.74;nan
4617;BME280;2321;42.704;23.384;2024-02-14T06:54:02;95474.25;;;5.78;nan
4617;BME280;2321;42.704;23.384;2024-02-14T06:56:29;95478.19;;;5.74;nan
4617;BME280;2321;42.704;23.384;2024-02-14T06:58:59;95478.53;;;5.80;nan
4617;BME280;2321;42.704;23.384;2024-02-14T07:01:28;95484.34;;;5.83;nan
4617;BME280;2321;42.704;23.384;2024-02-14T07:03:55;95484.66;;;5.80;nan
4617;BME280;2321;42.704;23.384;2024-02-14T07:06:22;95500.34;;;5.82;nan
4617;BME280;2321;42.704;23.384;2024-02-14T07:08:49;95503.84;;;5.82;nan
4617;BME280;2321;42.704;23.384;2024-02-14T07:11:16;95505.66;;;5.82;nan
4617;BME280;2321;42.704;23.384;2024-02-14T07:13:44;95507.94;;;5.76;nan
4617;BME280;2321;42.704;23.384;2024-02-14T07:16:12;95518.34;;;5.78;nan
4617;BME280;2321;42.704;23.384;2024-02-14T07:18:40;95510.41;;;5.78;nan
4617;BME280;2321;42.704;23.384;2024-02-14T07:21:07;95513.06;;;5.78;nan
4617;BME280;2321;42.704;23.384;2024-02-14T07:23:34;95527.94;;;5.79;nan
4617;BME280;2321;42.704;23.384;2024-02-14T07:26:02;95516.53;;;5.78;nan
4617;BME280;2321;42.704;23.384;2024-02-14T07:28:29;95523.13;;;5.83;nan
4617;BME280;2321;42.704;23.384;2024-02-14T07:30:56;95518.38;;;5.86;nan
4617;BME280;2321;42.704;23.384;2024-02-14T07:33:24;95519.53;;;5.92;nan
4617;BME280;2321;42.704;23.384;2024-02-14T07:35:51;95524.69;;;5.94;nan
4617;BME280;2321;42.704;23.384;2024-02-14T07:38:18;95519.91;;;5.97;nan
4617;BME280;2321;42.704;23.384;2024-02-14T07:40:45;95527.00;;;5.97;nan
4617;BME280;2321;42.704;23.384;2024-02-14T07:43:12;95530.47;;;5.97;nan
4617;BME280;2321;42.704;23.384;2024-02-14T07:45:39;95533.75;;;5.91;nan
4617;BME280;2321;42.704;23.384;2024-02-14T07:48:07;95524.16;;;5.90;nan
4617;BME280;2321;42.704;23.384;2024-02-14T07:50:36;95528.16;;;5.94;nan
4617;BME280;2321;42.704;23.384;2024-02-14T07:53:04;95537.56;;;5.97;nan
4617;BME280;2321;42.704;23.384;2024-02-14T07:55:32;95536.09;;;5.94;nan
4617;BME280;2321;42.704;23.384;2024-02-14T07:57:59;95541.84;;;5.89;nan
4617;BME280;2321;42.704;23.384;2024-02-14T08:00:26;95546.28;;;5.89;nan
4617;BME280;2321;42.704;23.384;2024-02-14T08:02:53;95541.84;;;5.89;nan
4617;BME280;2321;42.704;23.384;2024-02-14T08:05:20;95544.84;;;5.95;nan
4617;BME280;2321;42.704;23.384;2024-02-14T08:07:49;95544.53;;;5.98;nan
4617;BME280;2321;42.704;23.384;2024-02-14T08:10:16;95545.19;;;6.00;nan
4617;BME280;2321;42.704;23.384;2024-02-14T08:12:42;95549.81;;;5.98;nan
4617;BME280;2321;42.704;23.384;2024-02-14T08:15:09;95555.41;;;5.95;nan
4617;BME280;2321;42.704;23.384;2024-02-14T08:17:37;95552.88;;;5.85;nan
4617;BME280;2321;42.704;23.384;2024-02-14T08:20:05;95565.25;;;5.76;nan
4617;BME280;2321;42.704;23.384;2024-02-14T08:22:32;95570.97;;;5.71;nan
4617;BME280;2321;42.704;23.384;2024-02-14T08:25:01;95566.69;;;5.70;nan
4617;BME280;2321;42.704;23.384;2024-02-14T08:27:30;95567.03;;;5.75;nan
4617;BME280;2321;42.704;23.384;2024-02-14T08:29:57;95571.19;;;5.78;nan
4617;BME280;2321;42.704;23.384;2024-02-14T08:32:24;95565.25;;;5.76;nan
4617;BME280;2321;42.704;23.384;2024-02-14T08:34:51;95573.78;;;5.70;nan
4617;BME280;2321;42.704;23.384;2024-02-14T08:37:19;95570.16;;;5.71;nan
4617;BME280;2321;42.704;23.384;2024-02-14T08:39:46;95563.88;;;5.72;nan
4617;BME280;2321;42.704;23.384;2024-02-14T08:42:14;95579.44;;;5.75;nan
4617;BME280;2321;42.704;23.384;2024-02-14T08:44:41;95571.50;;;5.75;nan
4617;BME280;2321;42.704;23.384;2024-02-14T08:47:08;95574.31;;;5.73;nan
4617;BME280;2321;42.704;23.384;2024-02-14T08:49:36;95578.59;;;5.74;nan
4617;BME280;2321;42.704;23.384;2024-02-14T08:52:04;95587.88;;;5.78;nan
4617;BME280;2321;42.704;23.384;2024-02-14T08:54:32;95584.41;;;5.78;nan
4617;BME280;2321;42.704;23.384;2024-02-14T08:56:59;95588.72;;;5.79;nan
4617;BME280;2321;42.704;23.384;2024-02-14T08:59:27;95606.06;;;5.82;nan
4617;BME280;2321;42.704;23.384;2024-02-14T09:01:54;95603.81;;;5.69;nan
4617;BME280;2321;42.704;23.384;2024-02-14T09:04:22;95595.06;;;5.68;nan
4617;BME280;2321;42.704;23.384;2024-02-14T09:06:49;95596.88;;;5.67;nan
4617;BME280;2321;42.704;23.384;2024-02-14T09:09:16;95596.38;;;5.64;nan
4617;BME280;2321;42.704;23.384;2024-02-14T09:11:44;95601.97;;;5.61;nan
4617;BME280;2321;42.704;23.384;2024-02-14T09:14:11;95601.66;;;5.64;nan
4617;BME280;2321;42.704;23.384;2024-02-14T09:16:40;95602.34;;;5.66;nan
4617;BME280;2321;42.704;23.384;2024-02-14T09:19:07;95594.94;;;5.70;nan
4617;BME280;2321;42.704;23.384;2024-02-14T09:21:35;95600.22;;;5.70;nan
4617;BME280;2321;42.704;23.384;2024-02-14T09:24:02;95606.34;;;5.70;nan
4617;BME280;2321;42.704;23.384;2024-02-14T09:26:30;95607.66;;;5.74;nan
4617;BME280;2321;42.704;23.384;2024-02-14T09:28:57;95611.47;;;5.80;nan
4617;BME280;2321;42.704;23.384;2024-02-14T09:31:24;95615.94;;;5.80;nan
4617;BME280;2321;42.704;23.384;2024-02-14T09:33:53;95620.91;;;5.83;nan
4617;BME280;2321;42.704;23.384;2024-02-14T09:36:22;95592.91;;;5.63;nan
4617;BME280;2321;42.704;23.384;2024-02-14T09:38:51;95614.97;;;5.81;nan
4617;BME280;2321;42.704;23.384;2024-02-14T09:41:22;95619.78;;;5.85;nan
4617;BME280;2321;42.704;23.384;2024-02-14T09:43:52;95620.25;;;5.81;nan
4617;BME280;2321;42.704;23.384;2024-02-14T09:46:21;95620.25;;;5.81;nan
4617;BME280;2321;42.704;23.384;2024-02-14T09:48:53;95613.97;;;5.82;nan
4617;BME280;2321;42.704;23.384;2024-02-14T09:51:22;95608.19;;;5.78;nan
4617;BME280;2321;42.704;23.384;2024-02-14T09:53:50;95600.25;;;5.78;nan
4617;BME280;2321;42.704;23.384;2024-02-14T09:56:21;95610.66;;;5.80;nan
4617;BME280;2321;42.704;23.384;2024-02-14T09:58:49;95601.44;;;5.84;nan
4617;BME280;2321;42.704;23.384;2024-02-14T10:01:22;95569.66;;;5.67;nan
4617;BME280;2321;42.704;23.384;2024-02-14T10:03:49;95612.53;;;5.87;nan
4617;BME280;2321;42.704;23.384;2024-02-14T10:06:18;95622.44;;;5.85;nan
4617;BME280;2321;42.704;23.384;2024-02-14T10:08:46;95605.22;;;5.81;nan
4617;BME280;2321;42.704;23.384;2024-02-14T10:11:14;95612.31;;;5.81;nan
4617;BME280;2321;42.704;23.384;2024-02-14T10:13:44;95610.81;;;5.78;nan
4617;BME280;2321;42.704;23.384;2024-02-14T10:16:13;95611.31;;;5.73;nan
4617;BME280;2321;42.704;23.384;2024-02-14T10:18:40;95611.97;;;5.75;nan
4617;BME280;2321;42.704;23.384;2024-02-14T10:21:14;95609.53;;;5.82;nan
4617;BME280;2321;42.704;23.384;2024-02-14T10:23:44;95609.41;;;5.92;nan
4617;BME280;2321;42.704;23.384;2024-02-14T10:26:12;95614.06;;;5.98;nan
4617;BME280;2321;42.704;23.384;2024-02-14T10:28:41;95616.25;;;6.03;nan
4617;BME280;2321;42.704;23.384;2024-02-14T10:31:10;95606.31;;;6.05;nan
4617;BME280;2321;42.704;23.384;2024-02-14T10:33:38;95607.31;;;6.04;nan
4617;BME280;2321;42.704;23.384;2024-02-14T10:36:07;95604.84;;;6.03;nan
4617;BME280;2321;42.704;23.384;2024-02-14T10:38:35;95603.84;;;6.04;nan
4617;BME280;2321;42.704;23.384;2024-02-14T10:41:03;95599.91;;;6.08;nan
4617;BME280;2321;42.704;23.384;2024-02-14T10:43:31;95597.78;;;6.12;nan
4617;BME280;2321;42.704;23.384;2024-02-14T10:46:02;95598.94;;;6.09;nan
4617;BME280;2321;42.704;23.384;2024-02-14T10:48:32;95595.16;;;6.12;nan
4617;BME280;2321;42.704;23.384;2024-02-14T10:51:02;95590.03;;;6.10;nan
4617;BME280;2321;42.704;23.384;2024-02-14T10:53:32;95601.88;;;6.06;nan
4617;BME280;2321;42.704;23.384;2024-02-14T10:56:00;95604.00;;;6.02;nan
4617;BME280;2321;42.704;23.384;2024-02-14T10:58:29;95612.09;;;6.01;nan
4617;BME280;2321;42.704;23.384;2024-02-14T11:00:58;95599.69;;;6.01;nan
4617;BME280;2321;42.704;23.384;2024-02-14T11:03:26;95605.66;;;6.03;nan
4617;BME280;2321;42.704;23.384;2024-02-14T11:05:54;95603.69;;;6.05;nan
4617;BME280;2321;42.704;23.384;2024-02-14T11:08:28;95612.25;;;5.99;nan
4617;BME280;2321;42.704;23.384;2024-02-14T11:10:58;95609.59;;;5.99;nan
4617;BME280;2321;42.704;23.384;2024-02-14T11:13:25;95603.31;;;5.92;nan
4617;BME280;2321;42.704;23.384;2024-02-14T11:15:56;95604.63;;;5.96;nan
4617;BME280;2321;42.704;23.384;2024-02-14T11:18:27;95600.19;;;5.96;nan
4617;BME280;2321;42.704;23.384;2024-02-14T11:20:55;95607.31;;;6.04;nan
4617;BME280;2321;42.704;23.384;2024-02-14T11:23:23;95595.75;;;6.05;nan
4617;BME280;2321;42.704;23.384;2024-02-14T11:25:59;95604.75;;;6.13;nan
4617;BME280;2321;42.704;23.384;2024-02-14T11:28:28;95601.78;;;6.16;nan
4617;BME280;2321;42.704;23.384;2024-02-14T11:31:00;95600.78;;;6.17;nan
4617;BME280;2321;42.704;23.384;2024-02-14T11:33:29;95608.06;;;6.23;nan
4617;BME280;2321;42.704;23.384;2024-02-14T11:35:56;95609.56;;;6.26;nan
4617;BME280;2321;42.704;23.384;2024-02-14T11:38:24;95609.56;;;6.26;nan
4617;BME280;2321;42.704;23.384;2024-02-14T11:40:54;95605.81;;;6.28;nan
4617;BME280;2321;42.704;23.384;2024-02-14T11:43:22;95604.44;;;6.24;nan
4617;BME280;2321;42.704;23.384;2024-02-14T11:45:49;95600.31;;;6.21;nan
4617;BME280;2321;42.704;23.384;2024-02-14T11:48:19;95603.94;;;6.20;nan
4617;BME280;2321;42.704;23.384;2024-02-14T11:50:47;95599.16;;;6.24;nan
4617;BME280;2321;42.704;23.384;2024-02-14T11:53:15;95595.69;;;6.24;nan
4617;BME280;2321;42.704;23.384;2024-02-14T11:55:44;95604.66;;;6.31;nan
4617;BME280;2321;42.704;23.384;2024-02-14T11:58:14;95592.91;;;6.34;nan
4617;BME280;2321;42.704;23.384;2024-02-14T12:00:42;95595.56;;;6.34;nan
4617;BME280;2321;42.704;23.384;2024-02-14T12:03:12;95594.72;;;6.33;nan
4617;BME280;2321;42.704;23.384;2024-02-14T12:05:41;95594.25;;;6.38;nan
4617;BME280;2321;42.704;23.384;2024-02-14T12:08:09;95605.81;;;6.37;nan
4617;BME280;2321;42.704;23.384;2024-02-14T12:10:37;95586.81;;;6.41;nan
4617;BME280;2321;42.704;23.384;2024-02-14T12:13:08;95599.91;;;6.51;nan
4617;BME280;2321;42.704;23.384;2024-02-14T12:15:38;95596.13;;;6.62;nan
4617;BME280;2321;42.704;23.384;2024-02-14T12:18:05;95592.66;;;6.62;nan
4617;BME280;2321;42.704;23.384;2024-02-14T12:20:33;95597.13;;;6.61;nan
4617;BME280;2321;42.704;23.384;2024-02-14T12:23:02;95593.81;;;6.59;nan
4617;BME280;2321;42.704;23.384;2024-02-14T12:25:29;95596.47;;;6.68;nan
4617;BME280;2321;42.704;23.384;2024-02-14T12:27:57;95592.03;;;6.68;nan
4617;BME280;2321;42.704;23.384;2024-02-14T12:30:42;95592.50;;;6.72;nan
4617;BME280;2321;42.704;23.384;2024-02-14T12:33:11;95589.69;;;6.65;nan
4617;BME280;2321;42.704;23.384;2024-02-14T12:35:41;95586.53;;;6.61;nan
4617;BME280;2321;42.704;23.384;2024-02-14T12:38:11;95587.53;;;6.60;nan
4617;BME280;2321;42.704;23.384;2024-02-14T12:40:39;95577.44;;;6.64;nan
4617;BME280;2321;42.704;23.384;2024-02-14T12:43:08;95583.91;;;6.61;nan
4617;BME280;2321;42.704;23.384;2024-02-14T12:45:36;95586.53;;;6.61;nan
4617;BME280;2321;42.704;23.384;2024-02-14T12:48:02;95585.38;;;6.64;nan
4617;BME280;2321;42.704;23.384;2024-02-14T12:50:30;95583.06;;;6.69;nan
4617;BME280;2321;42.704;23.384;2024-02-14T12:52:57;95585.56;;;6.79;nan
4617;BME280;2321;42.704;23.384;2024-02-14T12:55:26;95584.25;;;6.83;nan
4617;BME280;2321;42.704;23.384;2024-02-14T12:57:54;95587.38;;;6.79;nan
4617;BME280;2321;42.704;23.384;2024-02-14T13:00:21;95587.06;;;6.82;nan
4617;BME280;2321;42.704;23.384;2024-02-14T13:02:48;95591.69;;;6.88;nan
4617;BME280;2321;42.704;23.384;2024-02-14T13:05:16;95583.09;;;6.78;nan
4617;BME280;2321;42.704;23.384;2024-02-14T13:07:43;95601.97;;;6.91;nan
4617;BME280;2321;42.704;23.384;2024-02-14T13:10:11;95608.59;;;6.95;nan
4617;BME280;2321;42.704;23.384;2024-02-14T13:12:39;95598.66;;;6.97;nan
4617;BME280;2321;42.704;23.384;2024-02-14T13:15:09;95595.19;;;6.97;nan
4617;BME280;2321;42.704;23.384;2024-02-14T13:17:36;95609.44;;;7.04;nan
4617;BME280;2321;42.704;23.384;2024-02-14T13:20:04;95607.75;;;7.03;nan
4617;BME280;2321;42.704;23.384;2024-02-14T13:22:31;95612.22;;;7.03;nan
4617;BME280;2321;42.704;23.384;2024-02-14T13:24:59;95604.97;;;7.13;nan
4617;BME280;2321;42.704;23.384;2024-02-14T13:27:28;95602.13;;;7.15;nan
4617;BME280;2321;42.704;23.384;2024-02-14T13:29:56;95600.50;;;7.14;nan
4617;BME280;2321;42.704;23.384;2024-02-14T13:32:23;95604.97;;;7.13;nan
4617;BME280;2321;42.704;23.384;2024-02-14T13:34:50;95607.44;;;7.15;nan
4617;BME280;2321;42.704;23.384;2024-02-14T13:37:18;95604.97;;;7.13;nan
4617;BME280;2321;42.704;23.384;2024-02-14T13:39:45;95607.78;;;7.20;nan
4617;BME280;2321;42.704;23.384;2024-02-14T13:42:12;95602.16;;;7.23;nan
4617;BME280;2321;42.704;23.384;2024-02-14T13:44:40;95604.28;;;7.28;nan
4617;BME280;2321;42.704;23.384;2024-02-14T13:47:08;95606.94;;;7.28;nan
4617;BME280;2321;42.704;23.384;2024-02-14T13:49:35;95606.09;;;7.27;nan